createdAt,value
2017-12-19T00:00:44.673Z,3.05
2017-12-19T00:01:44.653Z,2.95
2017-12-19T00:02:44.664Z,2.98
2017-12-19T00:03:44.631Z,3.03
2017-12-19T00:04:44.638Z,3.01
2017-12-19T00:05:44.608Z,3.04
2017-12-19T00:06:44.593Z,2.97
2017-12-19T00:07:44.579Z,3.05
2017-12-19T00:08:44.566Z,3.03
2017-12-19T00:09:44.561Z,3.07
2017-12-19T00:10:44.542Z,2.97
2017-12-19T00:11:44.585Z,2.98
2017-12-19T00:12:44.520Z,3.05
2017-12-19T00:13:44.506Z,3.01
2017-12-19T00:14:44.504Z,3.04
2017-12-19T00:15:44.488Z,3.01
2017-12-19T00:16:44.469Z,3.08
2017-12-19T00:17:44.457Z,2.97
2017-12-19T00:18:44.451Z,2.90
2017-12-19T00:19:44.436Z,3.00
2017-12-19T00:20:44.420Z,3.00
2017-12-19T00:21:44.445Z,3.05
2017-12-19T00:22:44.396Z,2.97
2017-12-19T00:23:44.382Z,3.00
2017-12-19T00:24:44.370Z,2.93
2017-12-19T00:25:44.400Z,3.00
2017-12-19T00:26:44.347Z,3.03
2017-12-19T00:27:44.346Z,3.07
2017-12-19T00:28:44.336Z,2.93
2017-12-19T00:29:44.318Z,3.03
2017-12-19T00:30:44.302Z,3.00
2017-12-19T00:31:44.293Z,3.01
2017-12-19T00:32:44.276Z,3.11
2017-12-19T00:33:44.262Z,2.97
2017-12-19T00:34:44.263Z,2.92
2017-12-19T00:35:44.269Z,3.03
2017-12-19T00:36:44.227Z,2.90
2017-12-19T00:37:44.212Z,2.97
2017-12-19T00:38:44.201Z,3.01
2017-12-19T00:39:44.189Z,3.00
2017-12-19T00:40:44.177Z,2.93
2017-12-19T00:41:44.162Z,2.93
2017-12-19T00:42:44.149Z,2.98
2017-12-19T00:43:44.142Z,2.93
2017-12-19T00:44:44.126Z,3.00
2017-12-19T00:45:44.133Z,2.95
2017-12-19T00:46:44.117Z,2.93
2017-12-19T00:47:44.091Z,3.05
2017-12-19T00:48:44.074Z,2.92
2017-12-19T00:49:44.064Z,2.98
2017-12-19T00:50:44.053Z,3.03
2017-12-19T00:51:44.040Z,2.98
2017-12-19T00:52:44.025Z,2.98
2017-12-19T00:53:44.011Z,3.00
2017-12-19T00:54:44.005Z,2.97
2017-12-19T00:55:43.997Z,3.03
2017-12-19T00:56:43.981Z,3.05
2017-12-19T00:57:43.964Z,3.03
2017-12-19T00:58:43.957Z,3.03
2017-12-19T00:59:43.940Z,3.01
2017-12-19T01:00:43.977Z,3.01
2017-12-19T01:01:43.915Z,3.01
2017-12-19T01:02:43.903Z,3.01
2017-12-19T01:03:43.889Z,2.87
2017-12-19T01:04:43.877Z,3.05
2017-12-19T01:05:43.869Z,3.01
2017-12-19T01:06:43.865Z,2.98
2017-12-19T01:07:43.845Z,2.93
2017-12-19T01:08:43.828Z,2.95
2017-12-19T01:09:43.817Z,3.00
2017-12-19T01:10:43.804Z,2.95
2017-12-19T01:11:43.791Z,2.95
2017-12-19T01:12:43.778Z,2.95
2017-12-19T01:13:43.766Z,2.95
2017-12-19T01:14:43.755Z,3.01
2017-12-19T01:15:43.766Z,2.95
2017-12-19T01:16:43.733Z,2.98
2017-12-19T01:17:43.846Z,2.98
2017-12-19T01:18:43.707Z,2.98
2017-12-19T01:19:43.695Z,3.00
2017-12-19T01:20:43.689Z,2.95
2017-12-19T01:21:43.698Z,2.98
2017-12-19T01:22:43.658Z,2.98
2017-12-19T01:23:43.643Z,2.97
2017-12-19T01:24:43.630Z,2.98
2017-12-19T01:25:43.620Z,3.01
2017-12-19T01:26:43.605Z,3.00
2017-12-19T01:27:43.608Z,3.03
2017-12-19T01:28:43.579Z,2.89
2017-12-19T01:29:43.573Z,2.87
2017-12-19T01:30:43.555Z,3.01
2017-12-19T01:31:43.543Z,3.01
2017-12-19T01:32:43.539Z,3.01
2017-12-19T01:33:43.518Z,3.01
2017-12-19T01:34:43.507Z,2.97
2017-12-19T01:35:43.495Z,3.05
2017-12-19T01:36:43.481Z,3.01
2017-12-19T01:37:43.469Z,2.97
2017-12-19T01:38:43.520Z,3.05
2017-12-19T01:39:43.444Z,3.08
2017-12-19T01:40:43.431Z,3.01
2017-12-19T01:41:43.422Z,3.04
2017-12-19T01:42:43.407Z,3.01
2017-12-19T01:43:43.396Z,3.08
2017-12-19T01:44:43.383Z,2.98
2017-12-19T01:45:43.377Z,3.00
2017-12-19T01:46:43.357Z,3.07
2017-12-19T01:47:43.347Z,3.03
2017-12-19T01:48:43.358Z,3.07
2017-12-19T01:49:43.321Z,3.01
2017-12-19T01:50:43.309Z,3.01
2017-12-19T01:51:43.297Z,3.05
2017-12-19T01:52:43.285Z,3.07
2017-12-19T01:53:43.273Z,3.04
2017-12-19T01:54:43.259Z,3.03
2017-12-19T01:55:43.253Z,3.01
2017-12-19T01:56:58.119Z,3.08
2017-12-19T01:57:43.221Z,3.07
2017-12-19T01:58:43.209Z,2.92
2017-12-19T01:59:43.201Z,3.01
2017-12-19T02:00:43.185Z,3.01
2017-12-19T02:01:43.176Z,2.95
2017-12-19T02:02:43.160Z,3.01
2017-12-19T02:03:43.148Z,3.01
2017-12-19T02:04:43.140Z,2.97
2017-12-19T02:05:43.145Z,3.00
2017-12-19T02:06:43.111Z,2.93
2017-12-19T02:07:43.101Z,2.95
2017-12-19T02:08:43.089Z,2.98
2017-12-19T02:09:43.072Z,2.98
2017-12-19T02:10:43.061Z,3.08
2017-12-19T02:11:43.048Z,3.05
2017-12-19T02:12:43.035Z,2.98
2017-12-19T02:13:43.023Z,2.97
2017-12-19T02:14:43.015Z,2.97
2017-12-19T02:15:43.005Z,3.04
2017-12-19T02:16:42.986Z,3.03
2017-12-19T02:17:42.976Z,3.03
2017-12-19T02:18:42.964Z,2.92
2017-12-19T02:19:42.950Z,3.08
2017-12-19T02:20:42.939Z,3.00
2017-12-19T02:21:42.926Z,3.01
2017-12-19T02:22:42.915Z,3.00
2017-12-19T02:23:42.901Z,2.97
2017-12-19T02:24:42.889Z,3.03
2017-12-19T02:25:42.877Z,2.97
2017-12-19T02:26:42.862Z,3.04
2017-12-19T02:27:42.856Z,3.08
2017-12-19T02:28:42.842Z,3.00
2017-12-19T02:29:42.827Z,3.03
2017-12-19T02:30:42.815Z,3.01
2017-12-19T02:31:42.847Z,3.03
2017-12-19T02:32:42.789Z,3.05
2017-12-19T02:33:42.778Z,3.03
2017-12-19T02:34:42.765Z,3.04
2017-12-19T02:35:42.758Z,2.97
2017-12-19T02:36:42.750Z,3.03
2017-12-19T02:37:42.726Z,3.05
2017-12-19T02:38:42.715Z,3.07
2017-12-19T02:39:42.712Z,3.05
2017-12-19T02:40:42.694Z,3.00
2017-12-19T02:41:42.678Z,2.87
2017-12-19T02:42:42.667Z,2.87
2017-12-19T02:43:42.654Z,3.03
2017-12-19T02:44:42.641Z,2.98
2017-12-19T02:45:42.628Z,3.03
2017-12-19T02:46:42.617Z,2.92
2017-12-19T02:47:42.644Z,3.03
2017-12-19T02:48:42.592Z,3.08
2017-12-19T02:49:42.577Z,3.01
2017-12-19T02:50:42.569Z,3.03
2017-12-19T02:51:42.555Z,3.05
2017-12-19T02:52:42.540Z,3.03
2017-12-19T02:53:42.534Z,3.00
2017-12-19T02:54:42.517Z,3.05
2017-12-19T02:55:42.506Z,2.98
2017-12-19T02:56:42.492Z,2.97
2017-12-19T02:57:42.480Z,3.05
2017-12-19T02:58:42.469Z,3.05
2017-12-19T02:59:42.477Z,3.03
2017-12-19T03:00:42.475Z,3.03
2017-12-19T03:01:42.429Z,2.87
2017-12-19T03:02:42.419Z,2.92
2017-12-19T03:03:42.406Z,2.98
2017-12-19T03:04:42.392Z,3.01
2017-12-19T03:05:42.380Z,2.97
2017-12-19T03:06:42.367Z,2.92
2017-12-19T03:07:42.357Z,2.98
2017-12-19T03:08:42.343Z,3.00
2017-12-19T03:09:42.331Z,2.93
2017-12-19T03:10:42.316Z,2.98
2017-12-19T03:11:42.306Z,2.92
2017-12-19T03:12:42.293Z,2.89
2017-12-19T03:13:42.283Z,2.98
2017-12-19T03:14:42.269Z,2.97
2017-12-19T03:15:42.264Z,2.95
2017-12-19T03:16:42.242Z,2.97
2017-12-19T03:17:42.231Z,2.95
2017-12-19T03:18:42.223Z,2.98
2017-12-19T03:19:42.207Z,2.98
2017-12-19T03:20:42.192Z,2.98
2017-12-19T03:21:42.180Z,2.98
2017-12-19T03:22:42.171Z,2.93
2017-12-19T03:23:42.155Z,2.98
2017-12-19T03:24:42.143Z,2.97
2017-12-19T03:25:42.134Z,2.98
2017-12-19T03:26:42.120Z,3.05
2017-12-19T03:27:42.107Z,3.04
2017-12-19T03:28:42.093Z,3.03
2017-12-19T03:29:42.081Z,2.90
2017-12-19T03:30:42.070Z,2.97
2017-12-19T03:31:42.055Z,2.98
2017-12-19T03:32:42.058Z,3.04
2017-12-19T03:33:42.032Z,2.98
2017-12-19T03:34:42.017Z,2.89
2017-12-19T03:35:42.007Z,3.04
2017-12-19T03:36:41.995Z,3.01
2017-12-19T03:37:41.981Z,3.04
2017-12-19T03:38:41.969Z,3.00
2017-12-19T03:39:41.957Z,2.98
2017-12-19T03:40:41.953Z,3.00
2017-12-19T03:41:41.930Z,2.98
2017-12-19T03:42:41.923Z,3.01
2017-12-19T03:43:41.905Z,2.89
2017-12-19T03:44:41.892Z,2.93
2017-12-19T03:45:41.884Z,3.03
2017-12-19T03:46:41.868Z,2.98
2017-12-19T03:47:41.856Z,3.05
2017-12-19T03:48:41.843Z,3.03
2017-12-19T03:49:41.830Z,2.95
2017-12-19T03:50:41.818Z,3.01
2017-12-19T03:51:41.811Z,2.98
2017-12-19T03:52:41.796Z,3.03
2017-12-19T03:53:41.786Z,3.07
2017-12-19T03:54:41.768Z,2.87
2017-12-19T03:55:41.755Z,3.03
2017-12-19T03:56:41.746Z,3.03
2017-12-19T03:57:41.737Z,2.89
2017-12-19T03:58:41.718Z,3.04
2017-12-19T03:59:41.705Z,3.04
2017-12-19T04:00:41.693Z,2.97
2017-12-19T04:01:41.683Z,2.97
2017-12-19T04:02:41.668Z,2.97
2017-12-19T04:03:41.655Z,3.01
2017-12-19T04:04:41.644Z,3.04
2017-12-19T04:05:41.630Z,3.00
2017-12-19T04:06:41.630Z,3.05
2017-12-19T04:07:41.606Z,3.00
2017-12-19T04:08:41.601Z,3.01
2017-12-19T04:09:41.580Z,2.95
2017-12-19T04:10:41.574Z,3.01
2017-12-19T04:11:41.556Z,2.93
2017-12-19T04:12:41.541Z,2.95
2017-12-19T04:13:41.530Z,3.01
2017-12-19T04:14:41.517Z,2.92
2017-12-19T04:15:41.505Z,2.98
2017-12-19T04:16:41.490Z,2.98
2017-12-19T04:17:41.483Z,2.97
2017-12-19T04:18:41.469Z,2.98
2017-12-19T04:19:41.474Z,2.95
2017-12-19T04:20:41.442Z,3.01
2017-12-19T04:21:41.430Z,2.98
2017-12-19T04:22:41.417Z,2.93
2017-12-19T04:23:41.405Z,2.95
2017-12-19T04:24:41.395Z,3.00
2017-12-19T04:25:41.379Z,2.97
2017-12-19T04:26:41.382Z,3.00
2017-12-19T04:27:41.354Z,2.97
2017-12-19T04:28:41.340Z,2.92
2017-12-19T04:29:41.330Z,3.00
2017-12-19T04:30:41.315Z,2.93
2017-12-19T04:31:41.307Z,3.00
2017-12-19T04:32:41.294Z,2.97
2017-12-19T04:33:41.279Z,3.01
2017-12-19T04:34:41.266Z,3.01
2017-12-19T04:35:41.253Z,3.00
2017-12-19T04:36:41.240Z,2.98
2017-12-19T04:37:41.229Z,2.90
2017-12-19T04:38:41.215Z,3.05
2017-12-19T04:39:41.217Z,2.89
2017-12-19T04:40:41.190Z,2.95
2017-12-19T04:41:41.178Z,3.00
2017-12-19T04:42:41.164Z,3.01
2017-12-19T04:43:41.154Z,3.07
2017-12-19T04:44:41.141Z,2.95
2017-12-19T04:45:41.125Z,2.98
2017-12-19T04:46:41.118Z,3.05
2017-12-19T04:47:41.103Z,3.01
2017-12-19T04:48:41.088Z,2.98
2017-12-19T04:49:41.076Z,3.00
2017-12-19T04:50:41.065Z,3.03
2017-12-19T04:51:41.050Z,2.97
2017-12-19T04:52:41.037Z,3.03
2017-12-19T04:53:41.027Z,3.00
2017-12-19T04:54:41.012Z,3.03
2017-12-19T04:55:41.000Z,3.10
2017-12-19T04:56:40.987Z,3.05
2017-12-19T04:57:40.977Z,2.98
2017-12-19T04:58:40.964Z,3.05
2017-12-19T04:59:40.950Z,3.10
2017-12-19T05:00:40.939Z,3.10
2017-12-19T05:01:40.926Z,3.10
2017-12-19T05:02:40.914Z,3.03
2017-12-19T05:03:40.903Z,3.05
2017-12-19T05:04:40.888Z,3.05
2017-12-19T05:05:40.876Z,3.07
2017-12-19T05:06:40.866Z,3.01
2017-12-19T05:07:40.849Z,3.08
2017-12-19T05:08:40.838Z,3.04
2017-12-19T05:09:40.830Z,3.01
2017-12-19T05:10:40.813Z,3.07
2017-12-19T05:11:40.802Z,3.04
2017-12-19T05:12:40.788Z,3.07
2017-12-19T05:13:40.775Z,3.10
2017-12-19T05:14:40.762Z,3.11
2017-12-19T05:15:40.752Z,3.07
2017-12-19T05:16:40.737Z,3.07
2017-12-19T05:17:40.727Z,3.10
2017-12-19T05:18:40.712Z,3.03
2017-12-19T05:19:40.707Z,3.05
2017-12-19T05:20:40.694Z,3.04
2017-12-19T05:21:40.674Z,3.08
2017-12-19T05:22:40.663Z,3.10
2017-12-19T05:23:40.656Z,3.05
2017-12-19T05:24:40.638Z,3.08
2017-12-19T05:25:40.626Z,3.13
2017-12-19T05:26:40.612Z,3.10
2017-12-19T05:27:40.605Z,3.11
2017-12-19T05:28:40.587Z,3.07
2017-12-19T05:29:40.581Z,3.07
2017-12-19T05:30:40.561Z,3.13
2017-12-19T05:31:40.554Z,3.05
2017-12-19T05:32:40.537Z,3.10
2017-12-19T05:33:40.527Z,3.14
2017-12-19T05:34:40.516Z,3.14
2017-12-19T05:35:40.503Z,3.13
2017-12-19T05:36:40.493Z,3.23
2017-12-19T05:37:40.475Z,3.14
2017-12-19T05:38:40.462Z,3.14
2017-12-19T05:39:40.477Z,3.21
2017-12-19T05:40:40.437Z,3.18
2017-12-19T05:41:40.425Z,3.13
2017-12-19T05:42:40.414Z,3.14
2017-12-19T05:43:40.402Z,3.14
2017-12-19T05:44:40.388Z,3.07
2017-12-19T05:45:40.376Z,3.19
2017-12-19T05:46:40.365Z,3.14
2017-12-19T05:47:40.352Z,3.11
2017-12-19T05:48:40.339Z,3.14
2017-12-19T05:49:40.353Z,3.18
2017-12-19T05:50:40.314Z,3.21
2017-12-19T05:51:40.302Z,3.18
2017-12-19T05:52:40.293Z,3.28
2017-12-19T05:53:40.278Z,3.13
2017-12-19T05:54:40.264Z,3.14
2017-12-19T05:55:40.252Z,3.11
2017-12-19T05:56:40.239Z,3.11
2017-12-19T05:57:40.228Z,3.11
2017-12-19T05:58:40.217Z,3.19
2017-12-19T05:59:40.205Z,3.19
2017-12-19T06:00:40.191Z,3.11
2017-12-19T06:01:40.179Z,3.22
2017-12-19T06:02:40.165Z,3.26
2017-12-19T06:03:40.153Z,3.14
2017-12-19T06:04:40.143Z,3.14
2017-12-19T06:05:40.127Z,3.13
2017-12-19T06:06:40.117Z,3.13
2017-12-19T06:07:40.104Z,3.19
2017-12-19T06:08:40.091Z,3.13
2017-12-19T06:09:40.081Z,3.14
2017-12-19T06:10:40.068Z,3.21
2017-12-19T06:11:40.054Z,3.21
2017-12-19T06:12:40.045Z,3.16
2017-12-19T06:13:40.030Z,3.22
2017-12-19T06:14:40.017Z,3.16
2017-12-19T06:15:40.010Z,3.23
2017-12-19T06:16:40.010Z,3.10
2017-12-19T06:17:39.981Z,3.14
2017-12-19T06:18:39.970Z,3.22
2017-12-19T06:19:39.962Z,3.26
2017-12-19T06:20:39.950Z,3.19
2017-12-19T06:21:39.930Z,3.21
2017-12-19T06:22:39.919Z,3.23
2017-12-19T06:23:39.906Z,3.23
2017-12-19T06:24:39.893Z,3.22
2017-12-19T06:25:39.883Z,3.22
2017-12-19T06:26:39.867Z,3.18
2017-12-19T06:27:39.856Z,3.21
2017-12-19T06:28:39.843Z,3.22
2017-12-19T06:29:39.832Z,3.23
2017-12-19T06:30:39.819Z,3.10
2017-12-19T06:31:39.815Z,3.26
2017-12-19T06:32:39.794Z,3.11
2017-12-19T06:33:39.785Z,3.21
2017-12-19T06:34:39.771Z,3.25
2017-12-19T06:35:39.758Z,3.23
2017-12-19T06:36:39.746Z,3.25
2017-12-19T06:37:39.732Z,3.28
2017-12-19T06:38:39.722Z,3.25
2017-12-19T06:39:39.709Z,3.28
2017-12-19T06:40:39.698Z,3.26
2017-12-19T06:41:39.684Z,3.23
2017-12-19T06:42:39.671Z,3.25
2017-12-19T06:43:39.659Z,3.26
2017-12-19T06:44:39.652Z,3.23
2017-12-19T06:45:39.634Z,3.29
2017-12-19T06:46:39.623Z,3.28
2017-12-19T06:47:39.613Z,3.19
2017-12-19T06:48:39.595Z,3.28
2017-12-19T06:49:39.583Z,3.28
2017-12-19T06:50:39.570Z,3.25
2017-12-19T06:51:39.562Z,3.28
2017-12-19T06:52:39.559Z,3.28
2017-12-19T06:53:39.534Z,3.34
2017-12-19T06:54:39.523Z,3.25
2017-12-19T06:55:39.517Z,3.32
2017-12-19T06:56:39.499Z,3.32
2017-12-19T06:57:39.486Z,3.25
2017-12-19T06:58:39.475Z,3.26
2017-12-19T06:59:39.460Z,3.26
2017-12-19T07:00:39.449Z,3.32
2017-12-19T07:01:39.435Z,3.32
2017-12-19T07:02:39.422Z,3.41
2017-12-19T07:03:39.416Z,3.29
2017-12-19T07:04:39.398Z,3.22
2017-12-19T07:05:39.387Z,3.28
2017-12-19T07:06:39.374Z,3.31
2017-12-19T07:07:39.366Z,3.28
2017-12-19T07:08:39.351Z,3.37
2017-12-19T07:09:39.351Z,3.34
2017-12-19T07:10:39.326Z,3.26
2017-12-19T07:11:39.312Z,3.41
2017-12-19T07:12:39.298Z,3.34
2017-12-19T07:13:39.292Z,3.32
2017-12-19T07:14:39.276Z,3.29
2017-12-19T07:15:39.267Z,3.32
2017-12-19T07:16:40.070Z,3.29
2017-12-19T07:17:39.241Z,3.31
2017-12-19T07:18:39.237Z,3.29
2017-12-19T07:19:39.214Z,3.34
2017-12-19T07:20:39.212Z,3.40
2017-12-19T07:21:39.189Z,3.41
2017-12-19T07:22:39.177Z,3.40
2017-12-19T07:23:39.168Z,3.31
2017-12-19T07:24:39.150Z,3.28
2017-12-19T07:25:39.143Z,3.34
2017-12-19T07:26:39.126Z,3.34
2017-12-19T07:27:39.114Z,3.29
2017-12-19T07:28:39.109Z,3.32
2017-12-19T07:29:39.092Z,3.41
2017-12-19T07:30:39.078Z,3.41
2017-12-19T07:31:39.068Z,3.44
2017-12-19T07:32:39.053Z,3.40
2017-12-19T07:33:39.047Z,3.40
2017-12-19T07:34:39.031Z,3.36
2017-12-19T07:35:39.018Z,3.40
2017-12-19T07:36:39.005Z,3.41
2017-12-19T07:37:38.991Z,3.51
2017-12-19T07:38:38.985Z,3.45
2017-12-19T07:39:38.968Z,3.42
2017-12-19T07:40:38.954Z,3.34
2017-12-19T07:41:38.943Z,3.41
2017-12-19T07:42:38.929Z,3.40
2017-12-19T07:43:38.917Z,3.42
2017-12-19T07:44:38.906Z,3.42
2017-12-19T07:45:38.893Z,3.41
2017-12-19T07:46:38.881Z,3.37
2017-12-19T07:47:38.868Z,3.36
2017-12-19T07:48:38.860Z,3.37
2017-12-19T07:49:38.847Z,3.42
2017-12-19T07:50:38.831Z,3.50
2017-12-19T07:51:38.819Z,3.40
2017-12-19T07:52:38.818Z,3.42
2017-12-19T07:53:38.795Z,3.48
2017-12-19T07:54:38.796Z,3.53
2017-12-19T07:55:38.774Z,3.42
2017-12-19T07:56:38.757Z,3.48
2017-12-19T07:57:38.769Z,3.40
2017-12-19T07:58:38.739Z,3.42
2017-12-19T07:59:38.720Z,3.50
2017-12-19T08:00:38.708Z,3.40
2017-12-19T08:01:38.698Z,3.42
2017-12-19T08:02:38.685Z,3.40
2017-12-19T08:03:38.675Z,3.53
2017-12-19T08:04:38.672Z,3.50
2017-12-19T08:05:38.647Z,3.42
2017-12-19T08:06:38.638Z,3.50
2017-12-19T08:07:38.623Z,3.55
2017-12-19T08:08:38.611Z,3.53
2017-12-19T08:09:38.603Z,3.56
2017-12-19T08:10:38.589Z,3.55
2017-12-19T08:11:38.573Z,3.58
2017-12-19T08:12:38.561Z,3.51
2017-12-19T08:13:38.549Z,3.51
2017-12-19T08:14:38.538Z,3.56
2017-12-19T08:15:38.526Z,3.50
2017-12-19T08:16:38.519Z,3.59
2017-12-19T08:17:38.502Z,3.56
2017-12-19T08:18:38.493Z,3.66
2017-12-19T08:19:38.476Z,3.65
2017-12-19T08:20:38.469Z,3.66
2017-12-19T08:21:38.452Z,3.65
2017-12-19T08:22:38.442Z,3.62
2017-12-19T08:23:38.443Z,3.63
2017-12-19T08:24:38.417Z,3.53
2017-12-19T08:25:38.404Z,3.53
2017-12-19T08:26:38.391Z,3.51
2017-12-19T08:27:38.378Z,3.60
2017-12-19T08:28:38.367Z,3.60
2017-12-19T08:29:38.362Z,3.62
2017-12-19T08:30:38.341Z,3.65
2017-12-19T08:31:38.330Z,3.66
2017-12-19T08:32:38.319Z,3.66
2017-12-19T08:33:38.305Z,3.63
2017-12-19T08:34:38.294Z,3.62
2017-12-19T08:35:38.289Z,3.62
2017-12-19T08:36:38.273Z,3.69
2017-12-19T08:37:38.258Z,3.68
2017-12-19T08:38:38.246Z,3.73
2017-12-19T08:39:38.236Z,3.70
2017-12-19T08:40:38.222Z,3.76
2017-12-19T08:41:38.210Z,3.80
2017-12-19T08:42:38.196Z,3.76
2017-12-19T08:43:38.184Z,3.74
2017-12-19T08:44:38.173Z,3.70
2017-12-19T08:45:38.163Z,3.78
2017-12-19T08:46:38.147Z,3.70
2017-12-19T08:47:38.159Z,3.78
2017-12-19T08:48:38.123Z,3.78
2017-12-19T08:49:38.133Z,3.74
2017-12-19T08:50:38.100Z,3.80
2017-12-19T08:51:38.092Z,3.78
2017-12-19T08:52:38.092Z,3.74
2017-12-19T08:53:38.063Z,3.84
2017-12-19T08:54:38.054Z,3.92
2017-12-19T08:55:38.104Z,3.86
2017-12-19T08:56:38.027Z,3.91
2017-12-19T08:57:38.018Z,3.86
2017-12-19T08:58:38.005Z,3.88
2017-12-19T08:59:37.990Z,3.94
2017-12-19T09:00:37.980Z,3.98
2017-12-19T09:01:37.969Z,3.95
2017-12-19T09:02:37.958Z,4.08
2017-12-19T09:03:37.943Z,4.04
2017-12-19T09:04:37.941Z,3.98
2017-12-19T09:05:37.921Z,4.06
2017-12-19T09:06:37.919Z,4.05
2017-12-19T09:07:37.897Z,4.06
2017-12-19T09:08:37.883Z,4.06
2017-12-19T09:09:37.872Z,4.05
2017-12-19T09:10:37.861Z,4.13
2017-12-19T09:11:37.851Z,4.04
2017-12-19T09:12:37.838Z,4.06
2017-12-19T09:13:37.825Z,4.04
2017-12-19T09:14:37.815Z,3.96
2017-12-19T09:15:37.801Z,4.05
2017-12-19T09:16:37.791Z,4.05
2017-12-19T09:17:37.778Z,4.02
2017-12-19T09:18:37.767Z,4.16
2017-12-19T09:19:37.753Z,4.16
2017-12-19T09:20:37.742Z,4.13
2017-12-19T09:21:37.768Z,4.20
2017-12-19T09:22:37.722Z,4.23
2017-12-19T09:23:37.737Z,4.16
2017-12-19T09:24:37.696Z,4.19
2017-12-19T09:25:37.685Z,4.20
2017-12-19T09:26:37.712Z,4.23
2017-12-19T09:27:37.662Z,4.20
2017-12-19T09:28:37.671Z,4.13
2017-12-19T09:29:37.638Z,4.22
2017-12-19T09:30:37.632Z,4.19
2017-12-19T09:31:37.615Z,4.22
2017-12-19T09:32:37.611Z,4.19
2017-12-19T09:33:37.590Z,4.28
2017-12-19T09:34:37.583Z,4.19
2017-12-19T09:35:37.575Z,4.23
2017-12-19T09:36:37.557Z,4.23
2017-12-19T09:37:37.545Z,4.20
2017-12-19T09:38:37.534Z,4.28
2017-12-19T09:39:37.522Z,4.23
2017-12-19T09:40:37.510Z,4.22
2017-12-19T09:41:37.497Z,4.22
2017-12-19T09:42:37.490Z,4.30
2017-12-19T09:43:37.481Z,4.34
2017-12-19T09:44:37.466Z,4.38
2017-12-19T09:45:37.451Z,4.31
2017-12-19T09:46:37.446Z,4.38
2017-12-19T09:47:37.434Z,4.45
2017-12-19T09:48:37.417Z,4.44
2017-12-19T09:49:37.407Z,4.48
2017-12-19T09:50:37.406Z,4.49
2017-12-19T09:51:37.390Z,4.49
2017-12-19T09:52:37.376Z,4.44
2017-12-19T09:53:37.359Z,4.48
2017-12-19T09:54:37.348Z,4.55
2017-12-19T09:55:37.336Z,4.49
2017-12-19T09:56:37.327Z,4.52
2017-12-19T09:57:37.319Z,4.58
2017-12-19T09:58:37.301Z,4.58
2017-12-19T09:59:37.290Z,4.62
2017-12-19T10:00:37.283Z,4.60
2017-12-19T10:01:37.269Z,4.58
2017-12-19T10:02:37.257Z,4.63
2017-12-19T10:03:37.245Z,4.66
2017-12-19T10:04:37.236Z,4.67
2017-12-19T10:05:37.224Z,4.66
2017-12-19T10:06:37.211Z,4.58
2017-12-19T10:07:37.203Z,4.62
2017-12-19T10:08:37.192Z,4.74
2017-12-19T10:09:37.176Z,4.66
2017-12-19T10:10:37.173Z,4.62
2017-12-19T10:11:37.154Z,4.66
2017-12-19T10:12:37.142Z,4.68
2017-12-19T10:13:37.131Z,4.67
2017-12-19T10:14:37.122Z,4.68
2017-12-19T10:15:37.112Z,4.68
2017-12-19T10:16:37.100Z,4.71
2017-12-19T10:17:37.142Z,4.66
2017-12-19T10:18:37.082Z,4.60
2017-12-19T10:19:37.067Z,4.70
2017-12-19T10:20:37.053Z,4.74
2017-12-19T10:21:37.063Z,4.78
2017-12-19T10:22:37.067Z,4.82
2017-12-19T10:23:37.019Z,4.80
2017-12-19T10:24:37.008Z,4.78
2017-12-19T10:25:36.998Z,4.80
2017-12-19T10:26:36.986Z,4.90
2017-12-19T10:27:36.977Z,4.92
2017-12-19T10:28:36.964Z,4.92
2017-12-19T10:29:36.952Z,4.94
2017-12-19T10:30:36.945Z,4.99
2017-12-19T10:31:36.936Z,4.92
2017-12-19T10:32:36.918Z,4.96
2017-12-19T10:33:36.907Z,4.96
2017-12-19T10:34:36.898Z,4.94
2017-12-19T10:35:36.914Z,4.92
2017-12-19T10:36:36.888Z,5.00
2017-12-19T10:37:36.868Z,4.93
2017-12-19T10:38:36.853Z,5.08
2017-12-19T10:39:36.842Z,5.08
2017-12-19T10:40:36.833Z,5.04
2017-12-19T10:41:36.820Z,5.15
2017-12-19T10:42:36.818Z,5.00
2017-12-19T10:43:36.810Z,5.17
2017-12-19T10:44:36.787Z,5.11
2017-12-19T10:45:36.780Z,5.15
2017-12-19T10:46:36.765Z,5.17
2017-12-19T10:47:36.756Z,5.07
2017-12-19T10:48:36.744Z,5.14
2017-12-19T10:49:36.735Z,5.17
2017-12-19T10:50:36.776Z,5.10
2017-12-19T10:51:36.712Z,5.14
2017-12-19T10:52:36.702Z,5.12
2017-12-19T10:53:36.695Z,5.20
2017-12-19T10:54:36.686Z,5.15
2017-12-19T10:55:36.670Z,5.23
2017-12-19T10:56:36.658Z,5.29
2017-12-19T10:57:36.647Z,5.30
2017-12-19T10:58:36.641Z,5.30
2017-12-19T10:59:36.628Z,5.35
2017-12-19T11:00:36.622Z,5.36
2017-12-19T11:01:36.607Z,5.32
2017-12-19T11:02:36.595Z,5.32
2017-12-19T11:03:36.583Z,5.36
2017-12-19T11:04:36.576Z,5.35
2017-12-19T11:05:36.563Z,5.32
2017-12-19T11:06:36.552Z,5.32
2017-12-19T11:07:36.544Z,5.29
2017-12-19T11:08:36.532Z,5.29
2017-12-19T11:09:36.518Z,5.29
2017-12-19T11:10:36.510Z,5.47
2017-12-19T11:11:36.499Z,5.44
2017-12-19T11:12:36.488Z,5.38
2017-12-19T11:13:36.477Z,5.44
2017-12-19T11:14:36.465Z,5.50
2017-12-19T11:15:36.455Z,5.53
2017-12-19T11:16:36.447Z,5.50
2017-12-19T11:17:36.434Z,5.47
2017-12-19T11:18:36.422Z,5.50
2017-12-19T11:19:36.413Z,5.47
2017-12-19T11:20:36.402Z,5.48
2017-12-19T11:21:36.392Z,5.50
2017-12-19T11:22:36.383Z,5.53
2017-12-19T11:23:36.369Z,5.53
2017-12-19T11:24:36.367Z,5.57
2017-12-19T11:25:36.364Z,5.50
2017-12-19T11:26:36.340Z,5.48
2017-12-19T11:27:36.327Z,5.48
2017-12-19T11:28:36.316Z,5.46
2017-12-19T11:29:36.308Z,5.46
2017-12-19T11:30:36.306Z,5.50
2017-12-19T11:31:36.286Z,5.48
2017-12-19T11:32:36.283Z,5.56
2017-12-19T11:33:36.264Z,5.53
2017-12-19T11:34:36.250Z,5.54
2017-12-19T11:35:36.242Z,5.56
2017-12-19T11:36:36.231Z,5.54
2017-12-19T11:37:36.220Z,5.57
2017-12-19T11:38:36.213Z,5.62
2017-12-19T11:39:36.200Z,5.56
2017-12-19T11:40:36.188Z,5.59
2017-12-19T11:41:36.179Z,5.59
2017-12-19T11:42:36.168Z,5.56
2017-12-19T11:43:36.158Z,5.61
2017-12-19T11:44:36.148Z,5.54
2017-12-19T11:45:36.137Z,5.59
2017-12-19T11:46:36.125Z,5.51
2017-12-19T11:47:36.118Z,5.61
2017-12-19T11:48:36.104Z,5.59
2017-12-19T11:49:36.094Z,5.59
2017-12-19T11:50:36.085Z,5.61
2017-12-19T11:51:36.073Z,5.56
2017-12-19T11:52:36.063Z,5.59
2017-12-19T11:53:36.052Z,5.57
2017-12-19T11:54:36.042Z,5.56
2017-12-19T11:55:36.030Z,5.68
2017-12-19T11:56:36.019Z,5.64
2017-12-19T11:57:36.016Z,5.68
2017-12-19T11:58:36.006Z,5.72
2017-12-19T11:59:35.989Z,5.65
2017-12-19T12:00:35.978Z,5.66
2017-12-19T12:01:35.965Z,5.64
2017-12-19T12:02:35.961Z,5.62
2017-12-19T12:03:35.946Z,5.66
2017-12-19T12:04:35.935Z,5.66
2017-12-19T12:05:35.926Z,5.68
2017-12-19T12:06:35.929Z,5.69
2017-12-19T12:07:35.905Z,5.65
2017-12-19T12:08:35.893Z,5.69
2017-12-19T12:09:35.884Z,5.69
2017-12-19T12:10:35.875Z,5.73
2017-12-19T12:11:35.864Z,5.76
2017-12-19T12:12:35.851Z,5.69
2017-12-19T12:13:35.842Z,5.73
2017-12-19T12:14:35.832Z,5.73
2017-12-19T12:15:35.821Z,5.72
2017-12-19T12:16:35.809Z,5.80
2017-12-19T12:17:35.802Z,5.68
2017-12-19T12:18:35.794Z,5.73
2017-12-19T12:19:35.784Z,5.75
2017-12-19T12:20:35.769Z,5.84
2017-12-19T12:21:35.757Z,5.79
2017-12-19T12:22:35.750Z,5.75
2017-12-19T12:23:35.740Z,5.82
2017-12-19T12:24:35.736Z,5.82
2017-12-19T12:25:35.716Z,5.82
2017-12-19T12:26:35.705Z,5.87
2017-12-19T12:27:35.694Z,5.82
2017-12-19T12:28:35.686Z,5.89
2017-12-19T12:29:35.675Z,5.87
2017-12-19T12:30:35.669Z,5.87
2017-12-19T12:31:35.684Z,5.82
2017-12-19T12:32:35.642Z,5.87
2017-12-19T12:33:35.633Z,5.75
2017-12-19T12:34:35.626Z,5.75
2017-12-19T12:35:35.622Z,5.83
2017-12-19T12:36:35.626Z,5.84
2017-12-19T12:37:35.591Z,5.83
2017-12-19T12:38:35.583Z,5.83
2017-12-19T12:39:35.570Z,5.89
2017-12-19T12:40:35.563Z,5.75
2017-12-19T12:41:35.548Z,5.84
2017-12-19T12:42:35.545Z,5.87
2017-12-19T12:43:35.530Z,5.86
2017-12-19T12:44:35.522Z,5.84
2017-12-19T12:45:35.507Z,5.91
2017-12-19T12:46:35.499Z,5.94
2017-12-19T12:47:35.487Z,5.89
2017-12-19T12:48:35.481Z,5.97
2017-12-19T12:49:35.465Z,5.98
2017-12-19T12:50:35.454Z,5.99
2017-12-19T12:51:35.445Z,5.93
2017-12-19T12:52:35.434Z,5.87
2017-12-19T12:53:35.422Z,5.98
2017-12-19T12:54:35.417Z,5.99
2017-12-19T12:55:35.403Z,5.93
2017-12-19T12:56:35.394Z,5.94
2017-12-19T12:57:35.383Z,5.98
2017-12-19T12:58:35.373Z,5.91
2017-12-19T12:59:35.360Z,5.90
2017-12-19T13:00:35.354Z,5.99
2017-12-19T13:01:35.340Z,5.91
2017-12-19T13:02:35.330Z,5.91
2017-12-19T13:03:35.328Z,5.94
2017-12-19T13:04:35.307Z,5.99
2017-12-19T13:05:35.300Z,6.05
2017-12-19T13:06:35.292Z,5.99
2017-12-19T13:07:35.276Z,5.99
2017-12-19T13:08:35.267Z,6.02
2017-12-19T13:09:35.259Z,5.91
2017-12-19T13:10:35.248Z,6.01
2017-12-19T13:11:35.238Z,5.99
2017-12-19T13:12:35.228Z,6.01
2017-12-19T13:13:35.215Z,6.07
2017-12-19T13:14:35.204Z,6.04
2017-12-19T13:15:35.196Z,6.08
2017-12-19T13:16:35.184Z,6.14
2017-12-19T13:17:35.172Z,6.11
2017-12-19T13:18:35.167Z,6.09